createdAt,value
2019-05-09T00:01:14.190Z,151.60
2019-05-09T00:04:23.080Z,134.87
2019-05-09T00:07:13.871Z,147.75
2019-05-09T00:10:03.965Z,134.00
2019-05-09T00:12:53.906Z,126.72
2019-05-09T00:15:43.500Z,143.62
2019-05-09T00:18:33.663Z,128.05
2019-05-09T00:21:23.933Z,127.67
2019-05-09T00:24:13.921Z,122.15
2019-05-09T00:27:03.881Z,125.07
2019-05-09T00:29:53.248Z,119.47
2019-05-09T00:32:43.494Z,117.65
2019-05-09T00:35:33.921Z,113.55
2019-05-09T00:38:24.110Z,139.00
2019-05-09T00:41:13.933Z,111.25
2019-05-09T00:44:10.379Z,109.07
2019-05-09T00:47:00.254Z,112.97
2019-05-09T00:49:48.543Z,105.97
2019-05-09T00:52:36.737Z,114.50
2019-05-09T00:55:25.216Z,103.45
2019-05-09T00:58:14.495Z,97.78
2019-05-09T01:01:04.319Z,103.25
2019-05-09T01:03:53.677Z,127.17
2019-05-09T01:06:43.417Z,96.95
2019-05-09T01:09:33.404Z,93.22
2019-05-09T01:12:23.525Z,91.70
2019-05-09T01:15:13.355Z,86.63
2019-05-09T01:18:04.173Z,90.70
2019-05-09T01:20:53.112Z,88.95
2019-05-09T01:23:43.671Z,89.28
2019-05-09T01:26:33.411Z,82.33
2019-05-09T01:29:23.097Z,81.82
2019-05-09T01:32:14.518Z,80.85
2019-05-09T01:35:03.865Z,87.12
2019-05-09T01:38:13.989Z,81.65
2019-05-09T01:41:01.227Z,81.85
2019-05-09T01:43:49.488Z,75.52
2019-05-09T01:46:38.143Z,76.85
2019-05-09T01:49:26.578Z,91.37
2019-05-09T01:52:14.726Z,73.97
2019-05-09T01:55:03.685Z,92.02
2019-05-09T01:57:53.792Z,83.35
2019-05-09T02:00:43.782Z,74.72
2019-05-09T02:03:33.642Z,77.05
2019-05-09T02:06:24.470Z,88.75
2019-05-09T02:09:14.019Z,70.22
2019-05-09T02:12:03.887Z,67.00
2019-05-09T02:14:56.586Z,65.75
2019-05-09T02:18:01.258Z,81.25
2019-05-09T02:20:45.570Z,65.70
2019-05-09T02:23:34.318Z,64.92
2019-05-09T02:26:24.068Z,67.67
2019-05-09T02:29:13.811Z,75.75
2019-05-09T02:32:04.689Z,68.25
2019-05-09T02:34:54.753Z,63.40
2019-05-09T02:37:43.270Z,62.75
2019-05-09T02:40:31.748Z,60.65
2019-05-09T02:43:20.216Z,73.65
2019-05-09T02:46:10.330Z,60.08
2019-05-09T02:48:59.571Z,66.70
2019-05-09T02:51:48.866Z,59.65
2019-05-09T02:54:39.237Z,58.60
2019-05-09T02:57:29.423Z,58.33
2019-05-09T03:03:28.994Z,57.60
2019-05-09T03:06:19.612Z,58.15
2019-05-09T03:09:08.992Z,56.23
2019-05-09T03:11:58.981Z,58.23
2019-05-09T03:14:48.755Z,59.73
2019-05-09T03:17:38.621Z,55.28
2019-05-09T03:20:29.120Z,55.70
2019-05-09T03:23:19.131Z,58.90
2019-05-09T03:26:09.778Z,55.20
2019-05-09T03:29:08.567Z,53.13
2019-05-09T03:31:59.852Z,54.63
2019-05-09T03:34:47.851Z,51.73
2019-05-09T03:37:37.842Z,66.62
2019-05-09T03:40:27.206Z,54.45
2019-05-09T03:43:18.195Z,62.83
2019-05-09T03:46:18.053Z,51.95
2019-05-09T03:52:17.836Z,63.13
2019-05-09T03:55:10.851Z,51.00
2019-05-09T03:58:04.036Z,52.10
2019-05-09T04:00:52.114Z,53.73
2019-05-09T04:03:40.314Z,53.68
2019-05-09T04:06:28.913Z,344.02
2019-05-09T04:09:17.964Z,564.40
2019-05-09T04:12:07.525Z,294.10
2019-05-09T04:14:58.287Z,230.60
2019-05-09T04:17:47.585Z,253.58
2019-05-09T04:20:37.708Z,237.45
2019-05-09T04:23:27.572Z,257.00
2019-05-09T04:26:34.103Z,257.60
2019-05-09T04:29:23.420Z,250.97
2019-05-09T04:32:11.984Z,250.32
2019-05-09T04:35:00.500Z,238.28
2019-05-09T04:37:48.826Z,238.20
2019-05-09T04:40:44.970Z,244.03
2019-05-09T04:43:35.469Z,264.90
2019-05-09T04:46:24.124Z,220.12
2019-05-09T04:49:08.722Z,202.82
2019-05-09T04:51:58.437Z,185.22
2019-05-09T04:54:48.492Z,184.10
2019-05-09T04:57:38.265Z,182.80
2019-05-09T05:03:30.179Z,184.10
2019-05-09T05:06:20.718Z,166.07
2019-05-09T05:09:08.895Z,163.95
2019-05-09T05:11:58.005Z,164.82
2019-05-09T05:14:47.596Z,158.18
2019-05-09T05:17:37.795Z,152.17
2019-05-09T05:20:28.162Z,154.12
2019-05-09T05:23:24.040Z,153.87
2019-05-09T05:26:12.484Z,149.27
2019-05-09T05:29:01.097Z,146.57
2019-05-09T05:31:49.842Z,151.72
2019-05-09T05:34:43.036Z,145.85
2019-05-09T05:37:31.338Z,138.37
2019-05-09T05:40:19.590Z,137.60
2019-05-09T05:43:08.773Z,142.35
2019-05-09T05:45:59.123Z,127.65
2019-05-09T05:48:48.721Z,141.25
2019-05-09T05:51:49.551Z,136.22
2019-05-09T05:54:38.088Z,125.00
2019-05-09T05:57:27.952Z,123.75
2019-05-09T06:00:18.143Z,129.18
2019-05-09T06:03:08.800Z,121.00
2019-05-09T06:05:58.424Z,134.45
2019-05-09T06:08:48.483Z,113.95
2019-05-09T06:11:38.401Z,132.52
2019-05-09T06:14:28.399Z,135.43
2019-05-09T06:17:18.115Z,145.35
2019-05-09T06:20:08.894Z,129.95
2019-05-09T06:22:58.205Z,127.70
2019-05-09T06:25:48.472Z,125.75
2019-05-09T06:28:37.627Z,121.60
2019-05-09T06:31:28.316Z,116.25
2019-05-09T06:34:18.442Z,120.30
2019-05-09T06:37:08.978Z,110.20
2019-05-09T06:39:55.631Z,117.45
2019-05-09T06:42:45.479Z,109.30
2019-05-09T06:45:44.611Z,118.28
2019-05-09T06:48:33.306Z,110.32
2019-05-09T06:51:22.558Z,100.82
2019-05-09T06:54:11.316Z,106.60
2019-05-09T06:56:59.814Z,105.27
2019-05-09T06:59:48.763Z,110.78
2019-05-09T07:02:48.384Z,121.00
2019-05-09T07:05:38.753Z,108.75
2019-05-09T07:08:31.391Z,110.85
2019-05-09T07:11:19.306Z,167.93
2019-05-09T07:14:09.373Z,121.00
2019-05-09T07:16:59.185Z,105.20
2019-05-09T07:19:48.992Z,116.20
2019-05-09T07:22:39.444Z,107.58
2019-05-09T07:25:32.746Z,93.52
2019-05-09T07:28:20.988Z,81.37
2019-05-09T07:31:20.051Z,78.57
2019-05-09T07:34:24.223Z,87.08
2019-05-09T07:37:14.042Z,77.10
2019-05-09T07:40:02.295Z,74.22
2019-05-09T07:43:03.273Z,73.45
2019-05-09T07:46:11.607Z,87.67
2019-05-09T07:49:00.782Z,72.67
2019-05-09T07:51:48.982Z,75.05
2019-05-09T07:54:38.247Z,74.40
2019-05-09T07:57:28.522Z,75.85
2019-05-09T08:00:19.764Z,70.65
2019-05-09T08:03:12.277Z,67.50
2019-05-09T08:05:58.140Z,82.82
2019-05-09T08:08:47.638Z,76.65
2019-05-09T08:11:37.647Z,88.33
2019-05-09T08:14:28.114Z,82.85
2019-05-09T08:17:18.097Z,68.17
2019-05-09T08:20:07.923Z,71.22
2019-05-09T08:23:01.328Z,73.42
2019-05-09T08:25:48.518Z,131.60
2019-05-09T08:28:38.746Z,65.35
2019-05-09T08:31:28.087Z,67.55
2019-05-09T08:34:18.670Z,66.07
2019-05-09T08:37:08.206Z,65.35
2019-05-09T08:39:57.725Z,64.82
2019-05-09T08:42:48.041Z,66.67
2019-05-09T08:45:38.337Z,70.42
2019-05-09T08:48:28.317Z,64.95
2019-05-09T08:54:42.475Z,62.30
2019-05-09T08:57:30.900Z,61.10
2019-05-09T09:00:19.149Z,60.17
2019-05-09T09:03:08.234Z,61.00
2019-05-09T09:05:57.735Z,62.38
2019-05-09T09:08:48.289Z,71.12
2019-05-09T09:11:38.559Z,70.75
2019-05-09T09:14:27.842Z,60.75
2019-05-09T09:17:18.706Z,59.80
2019-05-09T09:20:07.889Z,58.73
2019-05-09T09:22:58.221Z,59.77
2019-05-09T09:25:48.644Z,62.27
2019-05-09T09:28:37.959Z,59.05
2019-05-09T09:31:28.501Z,73.60
2019-05-09T09:34:18.173Z,57.27
2019-05-09T09:37:11.315Z,57.17
2019-05-09T09:39:58.246Z,56.60
2019-05-09T09:42:48.794Z,57.62
2019-05-09T09:45:37.782Z,56.88
2019-05-09T09:48:28.424Z,54.25
2019-05-09T09:51:18.668Z,67.22
2019-05-09T09:54:08.866Z,64.30
2019-05-09T09:56:58.490Z,54.80
2019-05-09T09:59:58.376Z,54.27
2019-05-09T10:02:48.216Z,55.98
2019-05-09T10:05:38.072Z,67.12
2019-05-09T10:08:26.827Z,54.15
2019-05-09T10:11:17.738Z,52.05
2019-05-09T10:14:07.889Z,54.98
2019-05-09T10:17:03.569Z,52.65
2019-05-09T10:20:02.547Z,58.75
2019-05-09T10:22:59.818Z,52.15
2019-05-09T10:25:40.640Z,51.42
2019-05-09T10:28:30.152Z,60.45
2019-05-09T10:31:18.958Z,51.55
2019-05-09T10:34:10.558Z,52.58
2019-05-09T10:36:58.310Z,53.08
2019-05-09T10:39:49.024Z,64.75
2019-05-09T10:45:57.850Z,50.80
2019-05-09T10:48:48.272Z,60.90
2019-05-09T10:51:37.667Z,76.77
2019-05-09T10:54:27.869Z,72.90
2019-05-09T10:57:16.002Z,83.60
2019-05-09T11:00:08.724Z,62.05
2019-05-09T11:02:58.395Z,63.38
2019-05-09T11:05:46.740Z,73.33
2019-05-09T11:08:35.051Z,84.95
2019-05-09T11:11:23.569Z,84.92
2019-05-09T11:14:31.502Z,76.30
2019-05-09T11:17:09.987Z,88.45
2019-05-09T11:19:53.097Z,93.62
2019-05-09T11:22:41.460Z,92.17
2019-05-09T11:25:30.231Z,87.15
2019-05-09T11:28:18.611Z,82.37
2019-05-09T11:31:08.138Z,90.57
2019-05-09T11:33:57.888Z,97.47
2019-05-09T11:36:49.635Z,99.07
2019-05-09T11:39:42.017Z,118.33
2019-05-09T11:42:28.540Z,113.32
2019-05-09T11:45:17.964Z,103.27
2019-05-09T11:48:08.273Z,113.28
2019-05-09T11:50:58.343Z,108.90
2019-05-09T11:53:48.551Z,105.72
2019-05-09T11:56:38.498Z,94.25
2019-05-09T11:59:28.031Z,97.75
2019-05-09T12:02:18.067Z,108.27
2019-05-09T12:05:08.775Z,91.90
2019-05-09T12:07:58.351Z,110.25
2019-05-09T12:10:47.055Z,96.28
2019-05-09T12:13:35.117Z,115.92
2019-05-09T12:16:23.332Z,97.57
2019-05-09T12:19:11.484Z,96.28
2019-05-09T12:21:59.724Z,90.72
2019-05-09T12:24:48.899Z,95.80
2019-05-09T12:27:37.101Z,135.07
2019-05-09T12:30:25.376Z,113.77
2019-05-09T12:33:14.146Z,105.43
2019-05-09T12:36:02.444Z,114.62
2019-05-09T12:38:50.752Z,100.20
2019-05-09T12:41:38.959Z,108.12
2019-05-09T12:44:28.859Z,109.22
2019-05-09T12:47:19.024Z,119.53
2019-05-09T12:50:08.669Z,108.85
2019-05-09T12:52:57.967Z,90.65
2019-05-09T12:55:47.578Z,101.53
2019-05-09T12:58:36.213Z,107.85
2019-05-09T13:01:24.526Z,108.25
2019-05-09T13:04:13.034Z,105.25
2019-05-09T13:07:01.254Z,93.82
2019-05-09T13:09:52.667Z,120.30
2019-05-09T13:12:39.951Z,99.45
2019-05-09T13:15:31.012Z,92.97
2019-05-09T13:18:24.552Z,75.35
2019-05-09T13:21:09.952Z,83.65
2019-05-09T13:23:58.789Z,90.53
2019-05-09T13:26:49.188Z,78.80
2019-05-09T13:29:38.253Z,76.55
2019-05-09T13:32:28.028Z,83.62
2019-05-09T13:35:19.782Z,82.47
2019-05-09T13:38:08.738Z,72.42
2019-05-09T13:40:58.391Z,69.47
2019-05-09T13:43:57.602Z,70.40
2019-05-09T13:46:38.803Z,81.10
2019-05-09T13:49:28.559Z,73.45
2019-05-09T13:52:17.958Z,71.47
2019-05-09T13:55:09.525Z,70.32
2019-05-09T13:57:59.447Z,89.60
2019-05-09T14:00:56.715Z,68.60
2019-05-09T14:03:38.760Z,66.15
2019-05-09T14:06:28.728Z,64.42
2019-05-09T14:09:19.973Z,62.83
2019-05-09T14:12:09.350Z,61.02
2019-05-09T14:14:58.271Z,144.62
2019-05-09T14:17:52.620Z,57.43
2019-05-09T14:20:37.796Z,63.68
2019-05-09T14:23:34.995Z,59.50
2019-05-09T14:26:18.016Z,66.90
2019-05-09T14:29:06.651Z,58.23
2019-05-09T14:31:54.815Z,61.00
2019-05-09T14:34:43.243Z,61.77
2019-05-09T14:37:31.647Z,53.45
2019-05-09T14:40:19.904Z,58.98
2019-05-09T14:43:09.795Z,81.80
2019-05-09T14:45:58.188Z,50.35
2019-05-09T14:48:48.227Z,54.20
2019-05-09T14:51:38.065Z,58.30
2019-05-09T14:54:28.858Z,57.58
2019-05-09T14:57:17.522Z,53.73
2019-05-09T15:00:07.735Z,49.10
2019-05-09T15:02:58.140Z,50.33
2019-05-09T15:05:48.040Z,56.13
2019-05-09T15:08:38.187Z,51.35
2019-05-09T15:11:28.354Z,54.48
2019-05-09T15:14:18.144Z,48.05
2019-05-09T15:17:08.831Z,48.87
2019-05-09T15:20:00.465Z,47.78
2019-05-09T15:22:47.925Z,53.95
2019-05-09T15:25:36.762Z,47.98
2019-05-09T15:28:25.321Z,47.85
2019-05-09T15:31:13.451Z,49.98
2019-05-09T15:34:01.767Z,48.85
2019-05-09T15:36:50.095Z,50.90
2019-05-09T15:39:38.340Z,47.58
2019-05-09T15:42:26.876Z,46.18
2019-05-09T15:45:18.365Z,44.93
2019-05-09T15:48:08.412Z,46.87
2019-05-09T15:50:58.343Z,49.08
2019-05-09T15:53:48.754Z,47.35
2019-05-09T15:56:38.400Z,45.33
2019-05-09T15:59:28.210Z,47.15
2019-05-09T16:02:19.141Z,49.05
2019-05-09T16:05:10.089Z,45.23
2019-05-09T16:07:55.922Z,45.65
2019-05-09T16:10:44.243Z,46.68
2019-05-09T16:13:32.379Z,65.15
2019-05-09T16:16:20.609Z,45.17
2019-05-09T16:19:09.158Z,46.02
2019-05-09T16:21:58.519Z,44.60
2019-05-09T16:24:48.569Z,44.23
2019-05-09T16:27:37.989Z,45.23
2019-05-09T16:30:27.528Z,45.63
2019-05-09T16:33:18.247Z,44.45
2019-05-09T16:36:05.896Z,43.52
2019-05-09T16:38:54.167Z,44.30
2019-05-09T16:41:42.338Z,46.15
2019-05-09T16:44:31.018Z,46.02
2019-05-09T16:47:21.401Z,44.45
2019-05-09T16:50:12.100Z,48.28
2019-05-09T16:52:59.083Z,44.13
2019-05-09T16:55:47.222Z,44.40
2019-05-09T16:58:37.921Z,59.33
2019-05-09T17:01:28.205Z,43.45
2019-05-09T17:04:18.887Z,44.30
2019-05-09T17:07:05.685Z,44.15
2019-05-09T17:09:54.168Z,42.75
2019-05-09T17:12:42.395Z,43.48
2019-05-09T17:15:31.143Z,51.08
2019-05-09T17:18:19.406Z,43.58
2019-05-09T17:21:18.421Z,43.48
2019-05-09T17:24:00.856Z,43.68
2019-05-09T17:26:49.096Z,41.90
2019-05-09T17:29:38.283Z,43.08
2019-05-09T17:32:28.490Z,42.62
2019-05-09T17:35:18.575Z,42.15
2019-05-09T17:38:08.690Z,43.42
2019-05-09T17:40:57.891Z,43.17
2019-05-09T17:43:47.454Z,46.18
2019-05-09T17:46:38.573Z,44.35
2019-05-09T17:49:27.892Z,42.58
2019-05-09T17:52:18.090Z,42.70
2019-05-09T17:55:11.786Z,43.78
2019-05-09T17:58:00.271Z,42.38
2019-05-09T18:00:49.004Z,41.08
2019-05-09T18:03:38.490Z,41.28
2019-05-09T18:06:28.201Z,41.28
2019-05-09T18:09:18.957Z,41.15
2019-05-09T18:12:08.378Z,41.80
2019-05-09T18:14:56.774Z,52.88
2019-05-09T18:17:47.705Z,48.20
2019-05-09T18:20:37.732Z,48.65
2019-05-09T18:23:25.367Z,45.65
2019-05-09T18:26:13.791Z,56.02
2019-05-09T18:29:02.111Z,65.83
2019-05-09T18:31:52.172Z,45.90
2019-05-09T18:34:40.555Z,50.03
2019-05-09T18:37:29.062Z,54.42
2019-05-09T18:40:18.014Z,69.22
2019-05-09T18:43:07.774Z,53.15
2019-05-09T18:45:57.786Z,53.95
2019-05-09T18:48:47.838Z,47.67
2019-05-09T18:51:36.504Z,47.58
2019-05-09T18:54:25.025Z,51.00
2019-05-09T18:57:13.596Z,42.67
2019-05-09T19:00:02.145Z,57.67
2019-05-09T19:02:50.763Z,53.73
2019-05-09T19:05:39.295Z,56.73
2019-05-09T19:08:28.834Z,42.58
2019-05-09T19:11:17.374Z,54.93
2019-05-09T19:14:06.959Z,52.88
2019-05-09T19:16:57.065Z,46.00
2019-05-09T19:19:46.864Z,43.08
2019-05-09T19:22:36.500Z,53.95
2019-05-09T19:25:25.031Z,44.63
2019-05-09T19:28:13.132Z,46.83
2019-05-09T19:31:01.459Z,48.33
2019-05-09T19:33:49.459Z,43.33
2019-05-09T19:36:50.689Z,47.35
2019-05-09T19:39:39.159Z,50.63
2019-05-09T19:42:27.399Z,49.70
2019-05-09T19:45:16.079Z,52.60
2019-05-09T19:48:04.366Z,52.95
2019-05-09T19:50:52.379Z,44.93
2019-05-09T19:53:40.955Z,53.63
2019-05-09T19:56:29.149Z,48.60
2019-05-09T19:59:17.535Z,72.22
2019-05-09T20:02:06.078Z,57.58
2019-05-09T20:04:55.365Z,43.55
2019-05-09T20:07:43.531Z,47.60
2019-05-09T20:10:49.802Z,53.65
2019-05-09T20:13:58.041Z,44.55
2019-05-09T20:16:48.132Z,57.78
2019-05-09T20:19:36.412Z,53.13
2019-05-09T20:22:25.202Z,45.83
2019-05-09T20:25:13.710Z,44.98
2019-05-09T20:28:02.262Z,51.05
2019-05-09T20:30:50.807Z,54.42
2019-05-09T20:33:39.286Z,54.13
2019-05-09T20:36:27.675Z,43.85
2019-05-09T20:39:16.011Z,42.23
2019-05-09T20:42:04.933Z,64.75
2019-05-09T20:44:53.597Z,62.83
2019-05-09T20:47:42.451Z,49.73
2019-05-09T20:50:30.960Z,46.35
2019-05-09T20:53:19.663Z,59.35
2019-05-09T20:56:09.461Z,45.17
2019-05-09T20:58:57.938Z,50.15
2019-05-09T21:01:48.104Z,109.00
2019-05-09T21:04:36.515Z,45.75
2019-05-09T21:07:25.011Z,39.23
2019-05-09T21:10:13.545Z,41.05
2019-05-09T21:13:02.098Z,44.40
2019-05-09T21:15:52.020Z,41.80
2019-05-09T21:18:40.663Z,42.35
2019-05-09T21:21:29.551Z,48.20
2019-05-09T21:24:17.921Z,43.25
2019-05-09T21:27:06.466Z,41.25
2019-05-09T21:29:55.288Z,41.15
2019-05-09T21:32:43.859Z,41.75
2019-05-09T21:35:32.007Z,41.48
2019-05-09T21:38:20.431Z,41.33
2019-05-09T21:41:08.730Z,40.05
2019-05-09T21:43:57.366Z,41.80
2019-05-09T21:46:45.606Z,46.80
2019-05-09T21:49:33.774Z,45.52
2019-05-09T21:52:22.296Z,40.20
2019-05-09T21:55:10.666Z,40.10
2019-05-09T21:57:59.125Z,41.63
2019-05-09T22:00:50.434Z,51.90
2019-05-09T22:03:40.575Z,39.95
2019-05-09T22:06:28.623Z,40.63
2019-05-09T22:09:17.141Z,58.33
2019-05-09T22:12:05.992Z,48.30
2019-05-09T22:14:54.335Z,63.55
2019-05-09T22:17:42.339Z,41.05
2019-05-09T22:20:30.634Z,46.23
2019-05-09T22:23:18.973Z,43.52
2019-05-09T22:26:06.962Z,148.25
2019-05-09T22:28:55.179Z,148.00
2019-05-09T22:31:43.564Z,146.75
2019-05-09T22:34:32.212Z,189.22
2019-05-09T22:37:20.888Z,268.77
2019-05-09T22:40:09.398Z,301.85
2019-05-09T22:42:57.655Z,255.80
2019-05-09T22:45:45.915Z,257.25
2019-05-09T22:48:34.261Z,250.47
2019-05-09T22:51:22.426Z,254.07
2019-05-09T22:54:13.028Z,255.95
2019-05-09T22:57:00.547Z,228.52
2019-05-09T22:59:49.427Z,223.82
2019-05-09T23:07:08.562Z,211.72
2019-05-09T23:09:56.775Z,197.40
2019-05-09T23:12:45.090Z,193.32
2019-05-09T23:15:33.571Z,195.53
2019-05-09T23:18:22.089Z,194.85
2019-05-09T23:21:10.355Z,189.25
2019-05-09T23:24:09.808Z,173.47
2019-05-09T23:26:58.330Z,180.65
2019-05-09T23:29:46.801Z,223.45
2019-05-09T23:32:36.771Z,165.77
2019-05-09T23:35:24.915Z,168.87
2019-05-09T23:38:13.209Z,179.50
2019-05-09T23:41:01.652Z,168.37
2019-05-09T23:43:49.987Z,160.80
2019-05-09T23:46:38.094Z,160.80
2019-05-09T23:49:26.427Z,156.85
2019-05-09T23:52:14.655Z,154.82
2019-05-09T23:55:21.239Z,144.22
2019-05-09T23:58:27.716Z,143.85
